sensor_id;sensor_type;location;lat;lon;timestamp;P1;durP1;ratioP1;P2;durP2;ratioP2
60241;SDS011;46103;52.076;113.488;2022-10-13T00:02:24;25.90;;;9.57;;
60241;SDS011;46103;52.076;113.488;2022-10-13T00:05:28;25.25;;;9.10;;
60241;SDS011;46103;52.076;113.488;2022-10-13T00:08:33;35.83;;;11.10;;
60241;SDS011;46103;52.076;113.488;2022-10-13T00:11:37;28.02;;;10.63;;
60241;SDS011;46103;52.076;113.488;2022-10-13T00:14:41;24.70;;;9.60;;
60241;SDS011;46103;52.076;113.488;2022-10-13T00:17:44;23.35;;;9.98;;
60241;SDS011;46103;52.076;113.488;2022-10-13T00:20:48;28.52;;;10.55;;
60241;SDS011;46103;52.076;113.488;2022-10-13T00:23:52;36.83;;;11.68;;
60241;SDS011;46103;52.076;113.488;2022-10-13T00:26:55;24.30;;;10.27;;
60241;SDS011;46103;52.076;113.488;2022-10-13T00:30:00;24.55;;;9.82;;
60241;SDS011;46103;52.076;113.488;2022-10-13T00:33:04;25.42;;;10.80;;
60241;SDS011;46103;52.076;113.488;2022-10-13T00:36:07;27.63;;;11.10;;
60241;SDS011;46103;52.076;113.488;2022-10-13T00:39:10;27.15;;;11.65;;
60241;SDS011;46103;52.076;113.488;2022-10-13T00:42:14;29.80;;;12.68;;
60241;SDS011;46103;52.076;113.488;2022-10-13T00:45:20;37.65;;;12.98;;
60241;SDS011;46103;52.076;113.488;2022-10-13T00:48:27;34.90;;;12.63;;
60241;SDS011;46103;52.076;113.488;2022-10-13T00:51:33;34.30;;;11.82;;
60241;SDS011;46103;52.076;113.488;2022-10-13T00:54:51;24.63;;;11.50;;
60241;SDS011;46103;52.076;113.488;2022-10-13T00:57:59;30.27;;;11.18;;
60241;SDS011;46103;52.076;113.488;2022-10-13T01:01:07;30.63;;;11.57;;
60241;SDS011;46103;52.076;113.488;2022-10-13T01:04:11;28.58;;;13.35;;
60241;SDS011;46103;52.076;113.488;2022-10-13T01:07:14;25.77;;;12.07;;
60241;SDS011;46103;52.076;113.488;2022-10-13T01:10:27;34.30;;;12.70;;
60241;SDS011;46103;52.076;113.488;2022-10-13T01:13:39;36.05;;;12.73;;
60241;SDS011;46103;52.076;113.488;2022-10-13T01:16:54;31.48;;;12.18;;
60241;SDS011;46103;52.076;113.488;2022-10-13T01:20:26;37.20;;;14.25;;
60241;SDS011;46103;52.076;113.488;2022-10-13T01:23:54;42.05;;;14.52;;
60241;SDS011;46103;52.076;113.488;2022-10-13T01:27:12;40.10;;;16.80;;
60241;SDS011;46103;52.076;113.488;2022-10-13T01:31:14;37.35;;;15.90;;
60241;SDS011;46103;52.076;113.488;2022-10-13T01:34:42;46.03;;;15.98;;
60241;SDS011;46103;52.076;113.488;2022-10-13T01:38:17;32.00;;;12.90;;
60241;SDS011;46103;52.076;113.488;2022-10-13T01:41:36;20.55;;;8.55;;
60241;SDS011;46103;52.076;113.488;2022-10-13T01:44:44;20.23;;;8.45;;
60241;SDS011;46103;52.076;113.488;2022-10-13T01:47:53;19.30;;;8.38;;
60241;SDS011;46103;52.076;113.488;2022-10-13T01:50:57;29.00;;;8.88;;
60241;SDS011;46103;52.076;113.488;2022-10-13T01:54:01;21.52;;;8.13;;
60241;SDS011;46103;52.076;113.488;2022-10-13T01:57:25;26.92;;;9.25;;
60241;SDS011;46103;52.076;113.488;2022-10-13T02:00:34;27.80;;;10.38;;
60241;SDS011;46103;52.076;113.488;2022-10-13T02:07:17;25.13;;;10.68;;
60241;SDS011;46103;52.076;113.488;2022-10-13T02:13:35;27.75;;;11.05;;
60241;SDS011;46103;52.076;113.488;2022-10-13T02:16:44;30.40;;;11.48;;
60241;SDS011;46103;52.076;113.488;2022-10-13T02:19:51;34.55;;;11.75;;
60241;SDS011;46103;52.076;113.488;2022-10-13T02:22:58;36.42;;;13.07;;
60241;SDS011;46103;52.076;113.488;2022-10-13T02:26:06;37.25;;;14.38;;
60241;SDS011;46103;52.076;113.488;2022-10-13T02:29:12;29.90;;;14.02;;
60241;SDS011;46103;52.076;113.488;2022-10-13T02:32:17;33.20;;;13.48;;
60241;SDS011;46103;52.076;113.488;2022-10-13T02:35:21;38.78;;;14.32;;
60241;SDS011;46103;52.076;113.488;2022-10-13T02:38:24;27.85;;;12.52;;
60241;SDS011;46103;52.076;113.488;2022-10-13T02:41:27;35.72;;;12.70;;
60241;SDS011;46103;52.076;113.488;2022-10-13T02:44:31;35.20;;;13.32;;
60241;SDS011;46103;52.076;113.488;2022-10-13T02:47:35;32.97;;;13.52;;
60241;SDS011;46103;52.076;113.488;2022-10-13T02:50:39;38.90;;;14.18;;
60241;SDS011;46103;52.076;113.488;2022-10-13T02:53:42;36.22;;;14.00;;
60241;SDS011;46103;52.076;113.488;2022-10-13T02:56:46;46.47;;;13.40;;
60241;SDS011;46103;52.076;113.488;2022-10-13T02:59:49;42.58;;;14.00;;
60241;SDS011;46103;52.076;113.488;2022-10-13T03:02:53;42.90;;;14.70;;
60241;SDS011;46103;52.076;113.488;2022-10-13T03:05:57;51.50;;;17.48;;
60241;SDS011;46103;52.076;113.488;2022-10-13T03:09:02;43.55;;;15.65;;
60241;SDS011;46103;52.076;113.488;2022-10-13T03:12:05;47.38;;;16.13;;
60241;SDS011;46103;52.076;113.488;2022-10-13T03:15:10;55.05;;;17.15;;
60241;SDS011;46103;52.076;113.488;2022-10-13T03:18:14;49.97;;;17.50;;
60241;SDS011;46103;52.076;113.488;2022-10-13T03:21:18;43.17;;;17.10;;
60241;SDS011;46103;52.076;113.488;2022-10-13T03:24:21;44.85;;;17.15;;
60241;SDS011;46103;52.076;113.488;2022-10-13T03:27:24;42.50;;;15.30;;
60241;SDS011;46103;52.076;113.488;2022-10-13T03:30:28;29.95;;;12.98;;
60241;SDS011;46103;52.076;113.488;2022-10-13T03:33:32;35.20;;;12.05;;
60241;SDS011;46103;52.076;113.488;2022-10-13T03:36:35;38.35;;;13.63;;
60241;SDS011;46103;52.076;113.488;2022-10-13T03:39:39;34.70;;;13.45;;
60241;SDS011;46103;52.076;113.488;2022-10-13T03:42:44;32.83;;;13.43;;
60241;SDS011;46103;52.076;113.488;2022-10-13T03:45:57;35.78;;;12.75;;
60241;SDS011;46103;52.076;113.488;2022-10-13T03:49:02;38.13;;;12.05;;
60241;SDS011;46103;52.076;113.488;2022-10-13T03:52:06;27.40;;;11.43;;
60241;SDS011;46103;52.076;113.488;2022-10-13T03:55:09;31.10;;;11.32;;
60241;SDS011;46103;52.076;113.488;2022-10-13T03:58:13;31.23;;;11.35;;
60241;SDS011;46103;52.076;113.488;2022-10-13T04:01:23;24.95;;;8.20;;
60241;SDS011;46103;52.076;113.488;2022-10-13T04:04:28;24.70;;;9.23;;
60241;SDS011;46103;52.076;113.488;2022-10-13T04:07:31;26.05;;;8.70;;
60241;SDS011;46103;52.076;113.488;2022-10-13T04:10:40;29.35;;;9.77;;
60241;SDS011;46103;52.076;113.488;2022-10-13T04:13:44;30.63;;;9.57;;
60241;SDS011;46103;52.076;113.488;2022-10-13T04:16:47;26.75;;;7.35;;
60241;SDS011;46103;52.076;113.488;2022-10-13T04:19:51;23.90;;;7.40;;
60241;SDS011;46103;52.076;113.488;2022-10-13T04:22:55;23.42;;;7.57;;
60241;SDS011;46103;52.076;113.488;2022-10-13T04:25:58;22.55;;;7.03;;
60241;SDS011;46103;52.076;113.488;2022-10-13T04:29:02;23.63;;;6.10;;
60241;SDS011;46103;52.076;113.488;2022-10-13T04:32:07;18.85;;;6.15;;
60241;SDS011;46103;52.076;113.488;2022-10-13T04:35:11;12.73;;;5.15;;
60241;SDS011;46103;52.076;113.488;2022-10-13T04:38:15;9.13;;;4.70;;
60241;SDS011;46103;52.076;113.488;2022-10-13T04:41:18;12.18;;;4.18;;
60241;SDS011;46103;52.076;113.488;2022-10-13T04:44:22;18.58;;;4.82;;
60241;SDS011;46103;52.076;113.488;2022-10-13T04:47:25;20.25;;;5.65;;
60241;SDS011;46103;52.076;113.488;2022-10-13T04:50:28;20.35;;;6.57;;
60241;SDS011;46103;52.076;113.488;2022-10-13T04:53:34;15.63;;;6.20;;
60241;SDS011;46103;52.076;113.488;2022-10-13T04:56:42;13.23;;;5.70;;
60241;SDS011;46103;52.076;113.488;2022-10-13T04:59:46;15.57;;;5.72;;
60241;SDS011;46103;52.076;113.488;2022-10-13T05:02:51;19.63;;;6.20;;
60241;SDS011;46103;52.076;113.488;2022-10-13T05:05:55;16.73;;;6.57;;
60241;SDS011;46103;52.076;113.488;2022-10-13T05:09:00;14.57;;;5.30;;
60241;SDS011;46103;52.076;113.488;2022-10-13T05:12:04;12.57;;;5.43;;
60241;SDS011;46103;52.076;113.488;2022-10-13T05:15:08;15.55;;;5.07;;
60241;SDS011;46103;52.076;113.488;2022-10-13T05:18:12;12.27;;;4.57;;
60241;SDS011;46103;52.076;113.488;2022-10-13T05:21:17;18.08;;;5.13;;
60241;SDS011;46103;52.076;113.488;2022-10-13T05:24:24;12.75;;;4.75;;
60241;SDS011;46103;52.076;113.488;2022-10-13T05:27:39;7.90;;;3.63;;
60241;SDS011;46103;52.076;113.488;2022-10-13T05:30:45;14.97;;;7.60;;
60241;SDS011;46103;52.076;113.488;2022-10-13T05:33:53;7.18;;;2.60;;
60241;SDS011;46103;52.076;113.488;2022-10-13T05:40:07;5.97;;;1.90;;
60241;SDS011;46103;52.076;113.488;2022-10-13T05:43:11;4.55;;;1.73;;
60241;SDS011;46103;52.076;113.488;2022-10-13T05:46:15;5.05;;;2.47;;
60241;SDS011;46103;52.076;113.488;2022-10-13T05:49:18;8.32;;;2.03;;
60241;SDS011;46103;52.076;113.488;2022-10-13T05:52:22;7.68;;;2.25;;
60241;SDS011;46103;52.076;113.488;2022-10-13T05:55:28;5.55;;;1.80;;
60241;SDS011;46103;52.076;113.488;2022-10-13T05:58:37;5.78;;;2.10;;
60241;SDS011;46103;52.076;113.488;2022-10-13T06:01:45;8.50;;;2.40;;
60241;SDS011;46103;52.076;113.488;2022-10-13T06:04:49;6.50;;;1.85;;
60241;SDS011;46103;52.076;113.488;2022-10-13T06:07:55;5.38;;;2.10;;
60241;SDS011;46103;52.076;113.488;2022-10-13T06:11:01;6.40;;;1.92;;
60241;SDS011;46103;52.076;113.488;2022-10-13T06:14:04;8.68;;;2.08;;
60241;SDS011;46103;52.076;113.488;2022-10-13T06:17:09;6.47;;;2.20;;
60241;SDS011;46103;52.076;113.488;2022-10-13T06:20:16;6.63;;;2.20;;
60241;SDS011;46103;52.076;113.488;2022-10-13T06:23:19;7.68;;;2.60;;
60241;SDS011;46103;52.076;113.488;2022-10-13T06:26:22;9.27;;;3.22;;
60241;SDS011;46103;52.076;113.488;2022-10-13T06:29:26;11.20;;;2.83;;
60241;SDS011;46103;52.076;113.488;2022-10-13T06:32:29;7.20;;;1.95;;
60241;SDS011;46103;52.076;113.488;2022-10-13T06:35:33;6.95;;;2.30;;
60241;SDS011;46103;52.076;113.488;2022-10-13T06:38:38;11.07;;;2.40;;
60241;SDS011;46103;52.076;113.488;2022-10-13T06:41:42;9.05;;;2.30;;
60241;SDS011;46103;52.076;113.488;2022-10-13T06:44:47;9.25;;;2.40;;
60241;SDS011;46103;52.076;113.488;2022-10-13T06:47:52;9.68;;;1.70;;
60241;SDS011;46103;52.076;113.488;2022-10-13T06:51:00;7.75;;;2.20;;
60241;SDS011;46103;52.076;113.488;2022-10-13T06:54:05;5.40;;;1.90;;
60241;SDS011;46103;52.076;113.488;2022-10-13T06:57:09;12.30;;;2.97;;
60241;SDS011;46103;52.076;113.488;2022-10-13T07:00:14;9.27;;;3.53;;
60241;SDS011;46103;52.076;113.488;2022-10-13T07:03:20;17.08;;;4.05;;
60241;SDS011;46103;52.076;113.488;2022-10-13T07:06:24;6.30;;;1.90;;
60241;SDS011;46103;52.076;113.488;2022-10-13T07:09:27;11.05;;;3.75;;
60241;SDS011;46103;52.076;113.488;2022-10-13T07:12:33;8.40;;;2.72;;
60241;SDS011;46103;52.076;113.488;2022-10-13T07:15:37;9.70;;;3.72;;
60241;SDS011;46103;52.076;113.488;2022-10-13T07:18:42;9.02;;;3.65;;
60241;SDS011;46103;52.076;113.488;2022-10-13T07:21:45;14.57;;;4.88;;
60241;SDS011;46103;52.076;113.488;2022-10-13T07:24:49;8.55;;;3.42;;
60241;SDS011;46103;52.076;113.488;2022-10-13T07:27:53;10.77;;;2.95;;
60241;SDS011;46103;52.076;113.488;2022-10-13T07:30:56;11.68;;;3.40;;
60241;SDS011;46103;52.076;113.488;2022-10-13T07:34:00;8.55;;;2.95;;
60241;SDS011;46103;52.076;113.488;2022-10-13T07:37:04;9.20;;;2.88;;
60241;SDS011;46103;52.076;113.488;2022-10-13T07:40:08;11.30;;;3.00;;
60241;SDS011;46103;52.076;113.488;2022-10-13T07:43:12;17.35;;;4.05;;
60241;SDS011;46103;52.076;113.488;2022-10-13T07:46:16;18.92;;;4.75;;
60241;SDS011;46103;52.076;113.488;2022-10-13T07:49:19;15.45;;;5.10;;
60241;SDS011;46103;52.076;113.488;2022-10-13T07:52:22;14.68;;;4.05;;
60241;SDS011;46103;52.076;113.488;2022-10-13T07:55:25;10.82;;;3.13;;
60241;SDS011;46103;52.076;113.488;2022-10-13T07:58:28;8.20;;;3.47;;
60241;SDS011;46103;52.076;113.488;2022-10-13T08:01:32;9.02;;;4.50;;
60241;SDS011;46103;52.076;113.488;2022-10-13T08:04:36;11.93;;;3.47;;
60241;SDS011;46103;52.076;113.488;2022-10-13T08:07:40;20.30;;;4.45;;
60241;SDS011;46103;52.076;113.488;2022-10-13T08:10:43;17.30;;;6.28;;
60241;SDS011;46103;52.076;113.488;2022-10-13T08:13:47;15.20;;;5.20;;
60241;SDS011;46103;52.076;113.488;2022-10-13T08:16:55;21.30;;;4.30;;
60241;SDS011;46103;52.076;113.488;2022-10-13T08:20:04;14.50;;;5.70;;
60241;SDS011;46103;52.076;113.488;2022-10-13T08:23:08;14.80;;;5.53;;
60241;SDS011;46103;52.076;113.488;2022-10-13T08:26:21;18.05;;;6.40;;
60241;SDS011;46103;52.076;113.488;2022-10-13T08:29:26;19.73;;;5.82;;
60241;SDS011;46103;52.076;113.488;2022-10-13T08:32:30;21.90;;;5.97;;
60241;SDS011;46103;52.076;113.488;2022-10-13T08:35:33;17.88;;;6.40;;
60241;SDS011;46103;52.076;113.488;2022-10-13T08:38:36;25.58;;;8.40;;
60241;SDS011;46103;52.076;113.488;2022-10-13T08:41:41;36.88;;;11.32;;
60241;SDS011;46103;52.076;113.488;2022-10-13T08:44:57;34.20;;;12.40;;
60241;SDS011;46103;52.076;113.488;2022-10-13T08:48:26;30.58;;;9.30;;
60241;SDS011;46103;52.076;113.488;2022-10-13T08:51:34;28.77;;;7.85;;
60241;SDS011;46103;52.076;113.488;2022-10-13T08:54:38;34.60;;;8.80;;
60241;SDS011;46103;52.076;113.488;2022-10-13T08:57:42;36.70;;;9.98;;
60241;SDS011;46103;52.076;113.488;2022-10-13T09:00:46;37.70;;;10.32;;
60241;SDS011;46103;52.076;113.488;2022-10-13T09:04:25;42.17;;;11.70;;
60241;SDS011;46103;52.076;113.488;2022-10-13T09:07:38;30.52;;;9.05;;
60241;SDS011;46103;52.076;113.488;2022-10-13T09:10:46;35.22;;;10.80;;
60241;SDS011;46103;52.076;113.488;2022-10-13T09:13:57;34.47;;;14.02;;
60241;SDS011;46103;52.076;113.488;2022-10-13T09:17:18;37.72;;;11.90;;
60241;SDS011;46103;52.076;113.488;2022-10-13T09:20:24;30.85;;;7.97;;
60241;SDS011;46103;52.076;113.488;2022-10-13T09:23:30;19.48;;;5.68;;
60241;SDS011;46103;52.076;113.488;2022-10-13T09:26:38;20.80;;;5.30;;
60241;SDS011;46103;52.076;113.488;2022-10-13T09:32:47;26.48;;;4.70;;
60241;SDS011;46103;52.076;113.488;2022-10-13T09:39:05;15.48;;;4.28;;
60241;SDS011;46103;52.076;113.488;2022-10-13T09:42:18;14.27;;;3.95;;
60241;SDS011;46103;52.076;113.488;2022-10-13T09:48:34;19.02;;;4.25;;
60241;SDS011;46103;52.076;113.488;2022-10-13T09:51:41;11.73;;;3.33;;
60241;SDS011;46103;52.076;113.488;2022-10-13T09:54:57;13.90;;;4.30;;
60241;SDS011;46103;52.076;113.488;2022-10-13T09:58:07;15.02;;;4.70;;
60241;SDS011;46103;52.076;113.488;2022-10-13T10:01:31;13.13;;;4.97;;
60241;SDS011;46103;52.076;113.488;2022-10-13T10:04:41;15.15;;;5.00;;
60241;SDS011;46103;52.076;113.488;2022-10-13T10:07:45;18.30;;;5.00;;
60241;SDS011;46103;52.076;113.488;2022-10-13T10:10:49;21.60;;;5.43;;
60241;SDS011;46103;52.076;113.488;2022-10-13T10:13:53;15.85;;;4.80;;
60241;SDS011;46103;52.076;113.488;2022-10-13T10:23:53;50.58;;;23.10;;
60241;SDS011;46103;52.076;113.488;2022-10-13T10:27:20;57.45;;;24.23;;
60241;SDS011;46103;52.076;113.488;2022-10-13T10:30:31;50.60;;;20.75;;
60241;SDS011;46103;52.076;113.488;2022-10-13T10:33:58;75.30;;;24.65;;
60241;SDS011;46103;52.076;113.488;2022-10-13T10:40:48;86.90;;;27.23;;
60241;SDS011;46103;52.076;113.488;2022-10-13T10:47:12;85.90;;;30.25;;
60241;SDS011;46103;52.076;113.488;2022-10-13T10:50:29;87.82;;;34.08;;
60241;SDS011;46103;52.076;113.488;2022-10-13T10:57:18;93.90;;;36.00;;
60241;SDS011;46103;52.076;113.488;2022-10-13T11:00:29;84.15;;;32.00;;
60241;SDS011;46103;52.076;113.488;2022-10-13T11:06:58;85.50;;;32.58;;
60241;SDS011;46103;52.076;113.488;2022-10-13T11:10:14;67.55;;;24.13;;
60241;SDS011;46103;52.076;113.488;2022-10-13T11:13:17;66.15;;;26.20;;
60241;SDS011;46103;52.076;113.488;2022-10-13T11:16:30;79.10;;;29.58;;
60241;SDS011;46103;52.076;113.488;2022-10-13T11:19:46;93.20;;;34.00;;
60241;SDS011;46103;52.076;113.488;2022-10-13T11:32:53;52.28;;;20.52;;
60241;SDS011;46103;52.076;113.488;2022-10-13T11:39:57;32.40;;;12.33;;
60241;SDS011;46103;52.076;113.488;2022-10-13T11:53:29;36.17;;;14.75;;
60241;SDS011;46103;52.076;113.488;2022-10-13T11:59:55;32.47;;;12.65;;
60241;SDS011;46103;52.076;113.488;2022-10-13T12:03:02;29.65;;;11.93;;
60241;SDS011;46103;52.076;113.488;2022-10-13T12:06:15;31.05;;;11.88;;
60241;SDS011;46103;52.076;113.488;2022-10-13T12:09:51;37.42;;;16.33;;
60241;SDS011;46103;52.076;113.488;2022-10-13T12:12:57;22.60;;;10.15;;
60241;SDS011;46103;52.076;113.488;2022-10-13T12:16:05;26.42;;;8.57;;
60241;SDS011;46103;52.076;113.488;2022-10-13T12:19:23;25.25;;;9.43;;
60241;SDS011;46103;52.076;113.488;2022-10-13T12:22:28;25.07;;;10.13;;
60241;SDS011;46103;52.076;113.488;2022-10-13T12:25:31;26.02;;;10.07;;
60241;SDS011;46103;52.076;113.488;2022-10-13T12:31:58;24.60;;;10.32;;
60241;SDS011;46103;52.076;113.488;2022-10-13T12:38:36;22.73;;;8.85;;
60241;SDS011;46103;52.076;113.488;2022-10-13T12:41:43;24.25;;;10.18;;
60241;SDS011;46103;52.076;113.488;2022-10-13T12:44:49;22.20;;;8.93;;
60241;SDS011;46103;52.076;113.488;2022-10-13T12:47:52;30.10;;;11.40;;
60241;SDS011;46103;52.076;113.488;2022-10-13T12:51:16;31.13;;;11.73;;
60241;SDS011;46103;52.076;113.488;2022-10-13T12:54:26;47.25;;;17.52;;
60241;SDS011;46103;52.076;113.488;2022-10-13T12:57:33;48.50;;;20.77;;
60241;SDS011;46103;52.076;113.488;2022-10-13T13:00:40;53.17;;;21.98;;
60241;SDS011;46103;52.076;113.488;2022-10-13T13:03:44;37.50;;;17.15;;
60241;SDS011;46103;52.076;113.488;2022-10-13T13:06:55;58.20;;;22.25;;
60241;SDS011;46103;52.076;113.488;2022-10-13T13:10:16;49.88;;;19.77;;
60241;SDS011;46103;52.076;113.488;2022-10-13T13:13:21;44.08;;;17.13;;
60241;SDS011;46103;52.076;113.488;2022-10-13T13:16:25;31.75;;;14.23;;
60241;SDS011;46103;52.076;113.488;2022-10-13T13:19:30;28.13;;;13.07;;
60241;SDS011;46103;52.076;113.488;2022-10-13T13:22:34;19.92;;;6.70;;
60241;SDS011;46103;52.076;113.488;2022-10-13T13:25:37;31.30;;;13.13;;
60241;SDS011;46103;52.076;113.488;2022-10-13T13:28:44;31.60;;;14.13;;
60241;SDS011;46103;52.076;113.488;2022-10-13T13:31:50;44.22;;;16.70;;
60241;SDS011;46103;52.076;113.488;2022-10-13T13:34:53;47.78;;;20.40;;
60241;SDS011;46103;52.076;113.488;2022-10-13T13:37:57;71.97;;;28.30;;
60241;SDS011;46103;52.076;113.488;2022-10-13T13:41:00;53.58;;;21.60;;
60241;SDS011;46103;52.076;113.488;2022-10-13T13:44:04;65.22;;;21.67;;
60241;SDS011;46103;52.076;113.488;2022-10-13T13:47:10;57.75;;;23.00;;
60241;SDS011;46103;52.076;113.488;2022-10-13T13:50:25;68.32;;;25.10;;
60241;SDS011;46103;52.076;113.488;2022-10-13T13:53:39;50.72;;;19.77;;
60241;SDS011;46103;52.076;113.488;2022-10-13T13:56:42;62.95;;;25.35;;
60241;SDS011;46103;52.076;113.488;2022-10-13T13:59:46;56.00;;;21.70;;
60241;SDS011;46103;52.076;113.488;2022-10-13T14:02:50;45.13;;;17.17;;
60241;SDS011;46103;52.076;113.488;2022-10-13T14:05:54;37.28;;;14.25;;
60241;SDS011;46103;52.076;113.488;2022-10-13T14:08:59;32.03;;;11.20;;
60241;SDS011;46103;52.076;113.488;2022-10-13T14:12:04;28.40;;;10.63;;
60241;SDS011;46103;52.076;113.488;2022-10-13T14:15:10;19.35;;;6.47;;
60241;SDS011;46103;52.076;113.488;2022-10-13T14:18:13;26.35;;;9.73;;
60241;SDS011;46103;52.076;113.488;2022-10-13T14:21:18;17.48;;;7.35;;
60241;SDS011;46103;52.076;113.488;2022-10-13T14:24:22;13.40;;;6.68;;
60241;SDS011;46103;52.076;113.488;2022-10-13T14:27:26;23.65;;;8.88;;
60241;SDS011;46103;52.076;113.488;2022-10-13T14:30:33;26.67;;;10.10;;
60241;SDS011;46103;52.076;113.488;2022-10-13T14:33:37;18.27;;;6.72;;
60241;SDS011;46103;52.076;113.488;2022-10-13T14:36:41;20.48;;;7.50;;
60241;SDS011;46103;52.076;113.488;2022-10-13T14:39:45;17.77;;;8.40;;
60241;SDS011;46103;52.076;113.488;2022-10-13T14:42:48;19.95;;;8.27;;
60241;SDS011;46103;52.076;113.488;2022-10-13T14:45:53;22.80;;;10.00;;
60241;SDS011;46103;52.076;113.488;2022-10-13T14:48:57;19.95;;;8.23;;
60241;SDS011;46103;52.076;113.488;2022-10-13T14:52:02;18.65;;;8.52;;
60241;SDS011;46103;52.076;113.488;2022-10-13T14:55:07;29.27;;;10.75;;
60241;SDS011;46103;52.076;113.488;2022-10-13T14:58:12;22.55;;;9.77;;
60241;SDS011;46103;52.076;113.488;2022-10-13T15:01:17;25.88;;;10.23;;
60241;SDS011;46103;52.076;113.488;2022-10-13T15:04:21;29.13;;;10.07;;
60241;SDS011;46103;52.076;113.488;2022-10-13T15:07:25;23.92;;;10.63;;
60241;SDS011;46103;52.076;113.488;2022-10-13T15:10:30;27.20;;;11.23;;
60241;SDS011;46103;52.076;113.488;2022-10-13T15:13:34;35.33;;;13.40;;
60241;SDS011;46103;52.076;113.488;2022-10-13T15:16:38;51.67;;;19.17;;
60241;SDS011;46103;52.076;113.488;2022-10-13T15:19:41;39.03;;;16.35;;
60241;SDS011;46103;52.076;113.488;2022-10-13T15:22:45;71.28;;;27.50;;
60241;SDS011;46103;52.076;113.488;2022-10-13T15:25:53;54.42;;;21.83;;
60241;SDS011;46103;52.076;113.488;2022-10-13T15:29:15;62.92;;;26.40;;
60241;SDS011;46103;52.076;113.488;2022-10-13T15:32:18;60.30;;;23.85;;
60241;SDS011;46103;52.076;113.488;2022-10-13T15:35:28;70.28;;;31.45;;
60241;SDS011;46103;52.076;113.488;2022-10-13T15:38:33;89.75;;;34.33;;
60241;SDS011;46103;52.076;113.488;2022-10-13T15:41:36;89.05;;;35.42;;
60241;SDS011;46103;52.076;113.488;2022-10-13T15:44:40;115.40;;;45.03;;
60241;SDS011;46103;52.076;113.488;2022-10-13T15:48:05;149.88;;;54.50;;
60241;SDS011;46103;52.076;113.488;2022-10-13T15:51:19;112.35;;;39.20;;
60241;SDS011;46103;52.076;113.488;2022-10-13T15:54:24;63.13;;;25.13;;
60241;SDS011;46103;52.076;113.488;2022-10-13T15:57:29;77.53;;;29.00;;
60241;SDS011;46103;52.076;113.488;2022-10-13T16:00:33;75.18;;;28.92;;
60241;SDS011;46103;52.076;113.488;2022-10-13T16:03:37;88.60;;;33.60;;
60241;SDS011;46103;52.076;113.488;2022-10-13T16:06:41;90.47;;;37.13;;
60241;SDS011;46103;52.076;113.488;2022-10-13T16:09:45;98.70;;;36.40;;
60241;SDS011;46103;52.076;113.488;2022-10-13T16:12:49;83.50;;;32.30;;
60241;SDS011;46103;52.076;113.488;2022-10-13T16:15:56;86.68;;;33.15;;
60241;SDS011;46103;52.076;113.488;2022-10-13T16:19:01;81.07;;;30.88;;
60241;SDS011;46103;52.076;113.488;2022-10-13T16:22:05;73.85;;;27.23;;
60241;SDS011;46103;52.076;113.488;2022-10-13T16:25:10;67.75;;;26.27;;
60241;SDS011;46103;52.076;113.488;2022-10-13T16:28:13;67.07;;;25.25;;
60241;SDS011;46103;52.076;113.488;2022-10-13T16:31:17;60.33;;;23.40;;
60241;SDS011;46103;52.076;113.488;2022-10-13T16:34:21;47.17;;;19.10;;
60241;SDS011;46103;52.076;113.488;2022-10-13T16:37:25;52.67;;;19.13;;
60241;SDS011;46103;52.076;113.488;2022-10-13T16:40:29;50.88;;;19.17;;
60241;SDS011;46103;52.076;113.488;2022-10-13T16:43:32;50.08;;;18.70;;
60241;SDS011;46103;52.076;113.488;2022-10-13T16:46:36;43.03;;;15.80;;
60241;SDS011;46103;52.076;113.488;2022-10-13T16:49:40;55.05;;;15.70;;
60241;SDS011;46103;52.076;113.488;2022-10-13T16:52:45;33.13;;;13.27;;
60241;SDS011;46103;52.076;113.488;2022-10-13T16:55:49;36.08;;;13.35;;
60241;SDS011;46103;52.076;113.488;2022-10-13T16:58:55;31.92;;;10.00;;
60241;SDS011;46103;52.076;113.488;2022-10-13T17:02:00;33.55;;;9.63;;
60241;SDS011;46103;52.076;113.488;2022-10-13T17:05:05;30.73;;;8.90;;
60241;SDS011;46103;52.076;113.488;2022-10-13T17:08:09;28.27;;;9.93;;
60241;SDS011;46103;52.076;113.488;2022-10-13T17:11:17;25.25;;;9.88;;
60241;SDS011;46103;52.076;113.488;2022-10-13T17:14:25;29.13;;;9.50;;
60241;SDS011;46103;52.076;113.488;2022-10-13T17:17:29;26.55;;;8.45;;
60241;SDS011;46103;52.076;113.488;2022-10-13T17:20:33;27.75;;;9.98;;
60241;SDS011;46103;52.076;113.488;2022-10-13T17:23:37;29.63;;;9.48;;
60241;SDS011;46103;52.076;113.488;2022-10-13T17:26:47;26.75;;;9.95;;
60241;SDS011;46103;52.076;113.488;2022-10-13T17:29:52;30.73;;;11.88;;
60241;SDS011;46103;52.076;113.488;2022-10-13T17:32:57;35.05;;;12.23;;
60241;SDS011;46103;52.076;113.488;2022-10-13T17:36:07;56.67;;;20.88;;
60241;SDS011;46103;52.076;113.488;2022-10-13T17:39:21;49.47;;;20.02;;
60241;SDS011;46103;52.076;113.488;2022-10-13T17:42:24;44.65;;;18.45;;
60241;SDS011;46103;52.076;113.488;2022-10-13T17:45:30;42.30;;;18.77;;
60241;SDS011;46103;52.076;113.488;2022-10-13T17:48:34;41.85;;;15.70;;
60241;SDS011;46103;52.076;113.488;2022-10-13T17:51:39;36.67;;;16.48;;
60241;SDS011;46103;52.076;113.488;2022-10-13T17:54:44;25.70;;;10.57;;
60241;SDS011;46103;52.076;113.488;2022-10-13T17:57:47;33.65;;;16.02;;
60241;SDS011;46103;52.076;113.488;2022-10-13T18:00:51;28.15;;;13.35;;
60241;SDS011;46103;52.076;113.488;2022-10-13T18:04:15;20.98;;;7.95;;
60241;SDS011;46103;52.076;113.488;2022-10-13T18:07:20;20.52;;;9.35;;
60241;SDS011;46103;52.076;113.488;2022-10-13T18:10:25;26.25;;;10.82;;
60241;SDS011;46103;52.076;113.488;2022-10-13T18:13:42;24.70;;;9.80;;
60241;SDS011;46103;52.076;113.488;2022-10-13T18:16:50;23.67;;;8.80;;
60241;SDS011;46103;52.076;113.488;2022-10-13T18:19:55;20.45;;;10.38;;
60241;SDS011;46103;52.076;113.488;2022-10-13T18:23:00;21.65;;;8.68;;
60241;SDS011;46103;52.076;113.488;2022-10-13T18:26:04;23.65;;;9.18;;
60241;SDS011;46103;52.076;113.488;2022-10-13T18:29:10;16.15;;;7.35;;
60241;SDS011;46103;52.076;113.488;2022-10-13T18:32:14;16.90;;;7.68;;
60241;SDS011;46103;52.076;113.488;2022-10-13T18:35:19;16.58;;;7.10;;
60241;SDS011;46103;52.076;113.488;2022-10-13T18:38:23;14.75;;;6.15;;
60241;SDS011;46103;52.076;113.488;2022-10-13T18:41:27;17.75;;;6.78;;
60241;SDS011;46103;52.076;113.488;2022-10-13T18:44:31;23.42;;;6.53;;
60241;SDS011;46103;52.076;113.488;2022-10-13T18:47:35;16.52;;;6.22;;
60241;SDS011;46103;52.076;113.488;2022-10-13T18:50:39;16.27;;;6.63;;
60241;SDS011;46103;52.076;113.488;2022-10-13T18:53:44;17.05;;;7.07;;
60241;SDS011;46103;52.076;113.488;2022-10-13T18:56:50;16.50;;;7.07;;
60241;SDS011;46103;52.076;113.488;2022-10-13T18:59:54;10.50;;;4.85;;
60241;SDS011;46103;52.076;113.488;2022-10-13T19:06:06;15.30;;;7.13;;
60241;SDS011;46103;52.076;113.488;2022-10-13T19:09:12;24.30;;;9.75;;